Dace Reinauer — WCW8843 — position and weather

sailwx.info

Track history (hours):
 
Tides and Currents Weather Stations Pressure Air Temp Water Temp Dewpoint Dewpoint Depression Visibility Wind Speed Wind Dir Waves Ship Positions

Dace Reinauer

Owner: REINAUER TRANSPORTATION CO.LLC., STATEN ISLAND, NY. More information available from US FCC via Universal Licensing System and Coast Guard Vessel Documentation Center.

Last reported at 2017-Sep-18 13:35 UTC. Time now 2017-Sep-20 18:23 UTC.
Position N 40°53' W 073°44'.

Length 41 m; draft 4.5 m.

Type: . MMSI: 366238710.

Date/timePositionNaut miles runAvg speedWind from/ knotsBaromVisibWave heightAir tempDewpointWater temp
2017-Sep-18 13:35N 40°53' W 073°44'1 8.9
2017-Sep-18 13:30N 40°52' W 073°44'4 8.6
2017-Sep-18 12:59N 40°48' W 073°47'5 8.9
2017-Sep-18 12:26N 40°48' W 073°53'4 8.8
2017-Sep-18 12:00N 40°46' W 073°57'5 9.7
2017-Sep-18 11:30N 40°41' W 074°00'4 8.0
2017-Sep-18 11:00N 40°39' W 074°05'3 6.5
2017-Sep-18 10:30N 40°38' W 074°09'3 4.2
2017-Sep-18 09:50N 40°38' W 074°12'0 0.0
2017-Sep-18 09:20N 40°38' W 074°12'0 0.3
2017-Sep-18 08:50N 40°38' W 074°12'0 0.0
2017-Sep-18 08:26N 40°38' W 074°12'0 0.0
2017-Sep-18 07:59N 40°38' W 074°12'0 0.0
2017-Sep-18 07:26N 40°38' W 074°12'0 0.0
2017-Sep-18 06:59N 40°38' W 074°12'0 0.0
2017-Sep-18 06:29N 40°38' W 074°12'0 0.0
2017-Sep-18 05:59N 40°38' W 074°12'0 0.0
2017-Sep-18 05:26N 40°38' W 074°12'0 0.0
2017-Sep-18 04:56N 40°38' W 074°12'0 0.0
2017-Sep-18 04:29N 40°38' W 074°12'0 0.0
2017-Sep-18 03:59N 40°38' W 074°12'0 0.0
2017-Sep-18 03:26N 40°38' W 074°12'0 0.0
2017-Sep-18 02:59N 40°38' W 074°12'0 0.0
2017-Sep-18 02:29N 40°38' W 074°12'0 0.0
2017-Sep-18 01:56N 40°38' W 074°12'0 0.0
2017-Sep-18 01:29N 40°38' W 074°12'0 0.0
2017-Sep-18 00:59N 40°38' W 074°12'0 0.0
2017-Sep-18 00:29N 40°38' W 074°12'0 0.0
2017-Sep-17 23:56N 40°38' W 074°12'0 0.0
2017-Sep-17 23:17N 40°38' W 074°12'0 0.0
2017-Sep-17 22:56N 40°38' W 074°12'0 0.0
2017-Sep-17 22:26N 40°38' W 074°12'0 0.0
2017-Sep-17 21:59N 40°38' W 074°12'0 0.0
2017-Sep-17 21:26N 40°38' W 074°12'0 0.0
2017-Sep-17 20:56N 40°38' W 074°12'0 0.0
2017-Sep-17 20:23N 40°38' W 074°12'0 0.0
2017-Sep-17 19:56N 40°38' W 074°12'0 0.0
2017-Sep-17 19:29N 40°38' W 074°12'0 0.0
2017-Sep-17 18:50N 40°38' W 074°12'0 0.0
2017-Sep-17 18:29N 40°38' W 074°12'0 0.0
2017-Sep-17 17:54N 40°38' W 074°12'2 5.1
2017-Sep-17 17:30N 40°38' W 074°10'1 3.0
2017-Sep-17 17:00N 40°38' W 074°08'0 0.0
2017-Sep-17 16:30N 40°38' W 074°08'0 0.0
2017-Sep-17 15:57N 40°38' W 074°08'0 0.0
2017-Sep-17 15:30N 40°38' W 074°08'0 0.0
2017-Sep-17 15:00N 40°38' W 074°08'0 0.0
2017-Sep-17 14:30N 40°38' W 074°08'0 0.0
2017-Sep-17 14:00N 40°38' W 074°08'0 0.0
2017-Sep-17 13:30N 40°38' W 074°08'0 0.0
2017-Sep-17 13:00N 40°38' W 074°08'0 0.0
2017-Sep-17 12:30N 40°38' W 074°08'0 0.0
2017-Sep-17 12:00N 40°38' W 074°08'0 0.0
2017-Sep-17 11:30N 40°38' W 074°08'0 0.0
2017-Sep-17 11:00N 40°38' W 074°08'0 0.0
2017-Sep-17 10:30N 40°38' W 074°08'0 0.0
2017-Sep-17 09:57N 40°38' W 074°08'0 0.0
2017-Sep-17 09:27N 40°38' W 074°08'0 0.0
2017-Sep-17 09:00N 40°38' W 074°08'0 0.0
2017-Sep-17 08:30N 40°38' W 074°08'0 0.0
2017-Sep-17 08:00N 40°38' W 074°08'1 1.1
2017-Sep-17 07:30N 40°39' W 074°08'3 5.7
2017-Sep-17 06:58N 40°38' W 074°12'0 0.1
2017-Sep-17 06:19N 40°38' W 074°12'1 2.0
2017-Sep-17 06:00N 40°38' W 074°12'3 5.3
2017-Sep-17 05:30N 40°39' W 074°08'5 9.4
2017-Sep-17 05:01N 40°40' W 074°03'1 2.3
2017-Sep-17 04:30N 40°40' W 074°01'0 0.0
2017-Sep-17 04:00N 40°40' W 074°01'0 0.0
2017-Sep-17 03:30N 40°40' W 074°01'0 0.0
2017-Sep-17 03:00N 40°40' W 074°01'0 0.0
2017-Sep-17 02:30N 40°40' W 074°01'1 1.3
2017-Sep-17 02:00N 40°40' W 074°02'1 2.4
2017-Sep-17 01:29N 40°39' W 074°03'0 0.0
2017-Sep-17 00:59N 40°39' W 074°03'0 0.1
2017-Sep-17 00:30N 40°39' W 074°03'0 0.2
2017-Sep-17 00:00N 40°39' W 074°03'0 0.1
2017-Sep-16 23:29N 40°39' W 074°03'0 0.0
2017-Sep-16 22:59N 40°39' W 074°03'0 0.0
2017-Sep-16 22:29N 40°39' W 074°03'0 0.0
2017-Sep-16 21:59N 40°39' W 074°03'1 2.6
2017-Sep-16 21:28N 40°40' W 074°01'0 0.0
2017-Sep-16 20:58N 40°40' W 074°01'0 0.0
2017-Sep-16 20:28N 40°40' W 074°01'0 0.0
2017-Sep-16 19:58N 40°40' W 074°01'0 0.0
2017-Sep-16 19:28N 40°40' W 074°01'0 0.0
2017-Sep-16 18:58N 40°40' W 074°01'0 0.0
2017-Sep-16 18:28N 40°40' W 074°01'0 0.0
2017-Sep-16 17:58N 40°40' W 074°01'0 0.0
2017-Sep-16 17:28N 40°40' W 074°01'0 0.0
2017-Sep-16 16:58N 40°40' W 074°01'0 0.0
2017-Sep-16 16:30N 40°40' W 074°01'0 0.4
2017-Sep-16 15:59N 40°40' W 074°01'0 0.0
2017-Sep-16 15:29N 40°40' W 074°01'0 0.4
2017-Sep-16 14:59N 40°40' W 074°01'0 0.0
2017-Sep-16 14:29N 40°40' W 074°01'0 0.0
2017-Sep-16 13:59N 40°40' W 074°01'0 0.0
2017-Sep-16 13:29N 40°40' W 074°01'0 0.0
2017-Sep-16 12:59N 40°40' W 074°01'0 0.0
2017-Sep-16 12:29N 40°40' W 074°01'0 0.0
2017-Sep-16 11:59N 40°40' W 074°01'0 0.0
2017-Sep-16 11:29N 40°40' W 074°01'0 0.0
2017-Sep-16 10:59N 40°40' W 074°01'0 0.0
2017-Sep-16 10:29N 40°40' W 074°01'0 0.0
2017-Sep-16 09:59N 40°40' W 074°01'0 0.1
2017-Sep-16 09:29N 40°40' W 074°01'0 0.1
2017-Sep-16 08:59N 40°40' W 074°01'0 0.0
2017-Sep-16 08:29N 40°40' W 074°01'0 0.0
2017-Sep-16 08:00N 40°40' W 074°01'0 0.3
2017-Sep-16 07:29N 40°40' W 074°01'0 0.3
2017-Sep-16 06:58N 40°40' W 074°01'0 0.0
2017-Sep-16 06:28N 40°40' W 074°01'0 0.0
2017-Sep-16 05:58N 40°40' W 074°01'0 0.0
2017-Sep-16 05:28N 40°40' W 074°01'0 0.0
2017-Sep-16 04:58N 40°40' W 074°01'0 0.0
2017-Sep-16 04:28N 40°40' W 074°01'0 0.0
2017-Sep-16 03:58N 40°40' W 074°01'0 0.0
2017-Sep-16 03:28N 40°40' W 074°01'0 0.0
2017-Sep-16 02:58N 40°40' W 074°01'0 0.0
2017-Sep-16 02:28N 40°40' W 074°01'0 0.0
2017-Sep-16 01:58N 40°40' W 074°01'0 0.0
2017-Sep-16 01:28N 40°40' W 074°01'0 0.0
2017-Sep-16 00:58N 40°40' W 074°01'0 0.0
2017-Sep-16 00:28N 40°40' W 074°01'0 0.0
2017-Sep-15 23:58N 40°40' W 074°01'0 0.0
2017-Sep-15 23:28N 40°40' W 074°01'0 0.0
2017-Sep-15 22:58N 40°40' W 074°01'0 0.0
2017-Sep-15 22:28N 40°40' W 074°01'0 0.0
2017-Sep-15 21:58N 40°40' W 074°01'0 0.0
2017-Sep-15 21:28N 40°40' W 074°01'0 0.0
2017-Sep-15 20:58N 40°40' W 074°01'0 0.0
2017-Sep-15 20:28N 40°40' W 074°01'0 0.0
2017-Sep-15 19:58N 40°40' W 074°01'0 0.0
2017-Sep-15 19:28N 40°40' W 074°01'0 0.0
2017-Sep-15 18:58N 40°40' W 074°01'0 0.0
2017-Sep-15 18:28N 40°40' W 074°01'0 0.0
2017-Sep-15 17:58N 40°40' W 074°01'0 0.0
2017-Sep-15 17:28N 40°40' W 074°01'0 0.0
2017-Sep-15 16:58N 40°40' W 074°01'0 0.0
2017-Sep-15 16:28N 40°40' W 074°01'0 0.0
2017-Sep-15 15:58N 40°40' W 074°01'0 0.0
2017-Sep-15 15:28N 40°40' W 074°01'0 0.0
2017-Sep-15 14:58N 40°40' W 074°01'0 0.0
2017-Sep-15 14:28N 40°40' W 074°01'0 0.0
2017-Sep-15 13:58N 40°40' W 074°01'0 0.0
2017-Sep-15 13:28N 40°40' W 074°01'0 0.0
2017-Sep-15 12:58N 40°40' W 074°01'0 0.0
2017-Sep-15 12:28N 40°40' W 074°01'0 0.0
2017-Sep-15 11:58N 40°40' W 074°01'0 0.0
2017-Sep-15 11:28N 40°40' W 074°01'0 0.0
2017-Sep-15 10:58N 40°40' W 074°01'0 0.0
2017-Sep-15 10:29N 40°40' W 074°01'1 2.8
2017-Sep-15 10:00N 40°39' W 074°02'1 2.5
2017-Sep-15 09:29N 40°40' W 074°01'0 0.0
2017-Sep-15 08:59N 40°40' W 074°01'0 0.0
2017-Sep-15 08:29N 40°40' W 074°01'0 0.0
2017-Sep-15 07:59N 40°40' W 074°01'0 0.0
2017-Sep-15 07:29N 40°40' W 074°01'0 0.0
2017-Sep-15 06:59N 40°40' W 074°01'0 0.0
2017-Sep-15 06:29N 40°40' W 074°01'0 0.0
2017-Sep-15 05:59N 40°40' W 074°01'0 0.0
2017-Sep-15 05:29N 40°40' W 074°01'0 0.0
2017-Sep-15 04:59N 40°40' W 074°01'0 0.0
2017-Sep-15 04:29N 40°40' W 074°01'0 0.0
2017-Sep-15 03:59N 40°40' W 074°01'0 0.0
2017-Sep-15 03:29N 40°40' W 074°01'0 0.0
2017-Sep-15 02:59N 40°40' W 074°01'0 0.0
2017-Sep-15 02:29N 40°40' W 074°01'0 0.0
2017-Sep-15 01:59N 40°40' W 074°01'0 0.0
2017-Sep-15 01:29N 40°40' W 074°01'0 0.0
2017-Sep-15 00:59N 40°40' W 074°01'0 0.0
2017-Sep-15 00:29N 40°40' W 074°01'0 0.0
2017-Sep-14 23:59N 40°40' W 074°01'0 0.0
2017-Sep-14 23:29N 40°40' W 074°01'0 0.0
2017-Sep-14 22:59N 40°40' W 074°01'0 0.0
2017-Sep-14 22:29N 40°40' W 074°01'0 0.0
2017-Sep-14 21:59N 40°40' W 074°01'0 0.0
2017-Sep-14 21:29N 40°40' W 074°01'0 0.0
2017-Sep-14 20:59N 40°40' W 074°01'0 0.0
2017-Sep-14 20:29N 40°40' W 074°01'0 0.0
2017-Sep-14 19:59N 40°40' W 074°01'0 0.0
2017-Sep-14 19:29N 40°40' W 074°01'0 0.0
2017-Sep-14 18:59N 40°40' W 074°01'0 0.0
2017-Sep-14 18:29N 40°40' W 074°01'0 0.0
2017-Sep-14 17:59N 40°40' W 074°01'0 0.0
2017-Sep-14 17:29N 40°40' W 074°01'0 0.0
2017-Sep-14 16:59N 40°40' W 074°01'0 0.0
2017-Sep-14 16:29N 40°40' W 074°01'0 0.0
2017-Sep-14 15:59N 40°40' W 074°01'0 0.0
2017-Sep-14 15:29N 40°40' W 074°01'0 0.0
2017-Sep-14 14:59N 40°40' W 074°01'0 0.0
2017-Sep-14 14:29N 40°40' W 074°01'0 0.0
2017-Sep-14 13:59N 40°40' W 074°01'0 0.0
2017-Sep-14 13:29N 40°40' W 074°01'0 0.0
2017-Sep-14 12:59N 40°40' W 074°01'0 0.0
2017-Sep-14 12:29N 40°40' W 074°01'0 0.0
2017-Sep-14 11:59N 40°40' W 074°01'0 0.0
2017-Sep-14 11:29N 40°40' W 074°01'0 0.0
2017-Sep-14 10:59N 40°40' W 074°01'0 0.0
2017-Sep-14 10:29N 40°40' W 074°01'0 0.0
2017-Sep-14 09:59N 40°40' W 074°01'0 0.0
2017-Sep-14 09:29N 40°40' W 074°01'0 0.0
2017-Sep-14 08:59N 40°40' W 074°01'0 0.0
2017-Sep-14 08:29N 40°40' W 074°01'0 0.0
2017-Sep-14 07:59N 40°40' W 074°01'0 0.0
2017-Sep-14 07:29N 40°40' W 074°01'0 0.0
2017-Sep-14 06:59N 40°40' W 074°01'0 0.0
2017-Sep-14 06:29N 40°40' W 074°01'0 0.0
2017-Sep-14 05:59N 40°40' W 074°01'0 0.0
2017-Sep-14 05:29N 40°40' W 074°01'0 0.0
2017-Sep-14 04:59N 40°40' W 074°01'0 0.0
2017-Sep-14 04:29N 40°40' W 074°01'0 0.0
2017-Sep-14 03:59N 40°40' W 074°01'0 0.0
2017-Sep-14 03:29N 40°40' W 074°01'0 0.0
2017-Sep-14 02:59N 40°40' W 074°01'0 0.0
2017-Sep-14 02:29N 40°40' W 074°01'0 0.0
2017-Sep-14 01:59N 40°40' W 074°01'0 0.0
2017-Sep-14 01:29N 40°40' W 074°01'0 0.0
2017-Sep-14 00:59N 40°40' W 074°01'0 0.0
2017-Sep-14 00:29N 40°40' W 074°01'0 0.0
2017-Sep-13 23:59N 40°40' W 074°01'0 0.0
2017-Sep-13 23:29N 40°40' W 074°01'0 0.0
2017-Sep-13 22:59N 40°40' W 074°01'0 0.0
2017-Sep-13 22:29N 40°40' W 074°01'0 0.0
2017-Sep-13 21:59N 40°40' W 074°01'0 0.0
2017-Sep-13 21:29N 40°40' W 074°01'1 1.7
2017-Sep-13 21:00N 40°40' W 074°02'0 0.1
2017-Sep-13 20:29N 40°40' W 074°02'0 0.1
2017-Sep-13 19:59N 40°40' W 074°02'0 0.0
2017-Sep-13 19:29N 40°40' W 074°02'0 0.0
2017-Sep-13 18:59N 40°40' W 074°02'0 0.1
2017-Sep-13 18:29N 40°40' W 074°02'0 0.1
2017-Sep-13 17:59N 40°40' W 074°02'0 0.0
2017-Sep-13 17:29N 40°40' W 074°02'0 0.0
2017-Sep-13 17:00N 40°40' W 074°02'1 1.4
2017-Sep-13 16:29N 40°40' W 074°01'0 0.0
2017-Sep-13 15:59N 40°40' W 074°01'0 0.0
2017-Sep-13 15:29N 40°40' W 074°01'0 0.0
2017-Sep-13 14:59N 40°40' W 074°01'0 0.0
2017-Sep-13 14:29N 40°40' W 074°01'0 0.0
2017-Sep-13 13:59N 40°40' W 074°01'0 0.0
2017-Sep-13 13:29N 40°40' W 074°01'0 0.0
2017-Sep-13 12:59N 40°40' W 074°01'0 0.0
2017-Sep-13 12:29N 40°40' W 074°01'0 0.0
2017-Sep-13 11:59N 40°40' W 074°01'0 0.0
2017-Sep-13 11:29N 40°40' W 074°01'0 0.0
2017-Sep-13 10:59N 40°40' W 074°01'0 0.0
2017-Sep-13 10:29N 40°40' W 074°01'0 0.0
2017-Sep-13 09:59N 40°40' W 074°01'0 0.0
2017-Sep-13 09:29N 40°40' W 074°01'0 0.0
2017-Sep-13 08:59N 40°40' W 074°01'0 0.0
2017-Sep-13 08:29N 40°40' W 074°01'0 0.0
2017-Sep-13 07:59N 40°40' W 074°01'0 0.0
2017-Sep-13 07:29N 40°40' W 074°01'0 0.0
2017-Sep-13 06:59N 40°40' W 074°01'0 0.0
2017-Sep-13 06:29N 40°40' W 074°01'0 0.0
2017-Sep-13 05:59N 40°40' W 074°01'0 0.0
2017-Sep-13 05:29N 40°40' W 074°01'0 0.0
2017-Sep-13 04:59N 40°40' W 074°01'0 0.0
2017-Sep-13 04:29N 40°40' W 074°01'0 0.0
2017-Sep-13 03:59N 40°40' W 074°01'0 0.0
2017-Sep-13 03:29N 40°40' W 074°01'1 1.3
2017-Sep-13 02:59N 40°40' W 074°02'0 0.2
2017-Sep-13 02:29N 40°40' W 074°02'0 0.0
2017-Sep-13 01:59N 40°40' W 074°02'0 0.1
2017-Sep-13 01:29N 40°40' W 074°02'0 0.0
2017-Sep-13 00:59N 40°40' W 074°02'0 0.0
2017-Sep-13 00:29N 40°40' W 074°02'0 0.0
2017-Sep-12 23:59N 40°40' W 074°02'0 0.0
2017-Sep-12 23:29N 40°40' W 074°02'0 0.0
2017-Sep-12 22:59N 40°40' W 074°02'0 0.0
2017-Sep-12 22:29N 40°40' W 074°02'0 0.0
2017-Sep-12 21:59N 40°40' W 074°02'1 1.6
2017-Sep-12 21:30N 40°40' W 074°01'0 0.1
2017-Sep-12 21:00N 40°40' W 074°01'0 0.3
2017-Sep-12 20:28N 40°40' W 074°01'0 0.0
2017-Sep-12 19:58N 40°40' W 074°01'0 0.0
2017-Sep-12 19:28N 40°40' W 074°01'0 0.0
2017-Sep-12 18:58N 40°40' W 074°01'0 0.0
2017-Sep-12 18:29N 40°40' W 074°01'0 0.0
2017-Sep-12 18:00N 40°40' W 074°01'0 0.0
2017-Sep-12 17:30N 40°40' W 074°01'1 1.5
2017-Sep-12 17:00N 40°40' W 074°02'0 0.0
2017-Sep-12 16:30N 40°40' W 074°02'0 0.0
2017-Sep-12 16:00N 40°40' W 074°02'0 0.1
2017-Sep-12 15:30N 40°40' W 074°02'0 0.3
2017-Sep-12 15:00N 40°40' W 074°02'0 0.1
2017-Sep-12 14:30N 40°40' W 074°02'0 0.0
2017-Sep-12 14:00N 40°40' W 074°02'0 0.1
2017-Sep-12 13:30N 40°40' W 074°02'0 0.1
2017-Sep-12 13:00N 40°40' W 074°02'0 0.1
2017-Sep-12 12:30N 40°40' W 074°02'0 0.1
2017-Sep-12 12:00N 40°40' W 074°02'1 1.3
2017-Sep-12 11:29N 40°40' W 074°01'0 0.0
2017-Sep-12 10:58N 40°40' W 074°01'0 0.0
2017-Sep-12 10:29N 40°40' W 074°01'0 0.0
2017-Sep-12 09:59N 40°40' W 074°01'0 0.0
2017-Sep-12 09:28N 40°40' W 074°01'0 0.0
2017-Sep-12 08:59N 40°40' W 074°01'0 0.0
2017-Sep-12 08:28N 40°40' W 074°01'0 0.0
2017-Sep-12 07:59N 40°40' W 074°01'0 0.0
2017-Sep-12 07:29N 40°40' W 074°01'0 0.0
2017-Sep-12 06:59N 40°40' W 074°01'0 0.0
2017-Sep-12 06:28N 40°40' W 074°01'0 0.4
2017-Sep-12 06:00N 40°40' W 074°01'0 0.1
2017-Sep-12 05:30N 40°40' W 074°01'3 6.4
2017-Sep-12 05:01N 40°39' W 074°05'4 7.7
2017-Sep-12 04:31N 40°39' W 074°10'3 7.0
2017-Sep-12 04:00N 40°36' W 074°12'0 0.6
2017-Sep-12 03:30N 40°35' W 074°12'4 8.1
2017-Sep-12 03:01N 40°39' W 074°09'511.0
2017-Sep-12 02:31N 40°40' W 074°02'1 2.2
2017-Sep-12 02:00N 40°40' W 074°01'0 0.0
2017-Sep-12 01:30N 40°40' W 074°01'0 0.0
2017-Sep-12 01:00N 40°40' W 074°01'0 0.0
2017-Sep-12 00:30N 40°40' W 074°01'0 0.0
2017-Sep-12 00:00N 40°40' W 074°01'0 0.0
2017-Sep-11 23:30N 40°40' W 074°01'0 0.0
2017-Sep-11 23:00N 40°40' W 074°01'0 0.0
2017-Sep-11 22:30N 40°40' W 074°01'0 0.0
2017-Sep-11 22:00N 40°40' W 074°01'0 0.0
2017-Sep-11 21:30N 40°40' W 074°01'0 0.0
2017-Sep-11 21:00N 40°40' W 074°01'0 0.0
2017-Sep-11 20:30N 40°40' W 074°01'0 0.0
2017-Sep-11 20:00N 40°40' W 074°01'0 0.0
2017-Sep-11 19:30N 40°40' W 074°01'0 0.0
2017-Sep-11 19:00N 40°40' W 074°01'0 0.0
2017-Sep-11 18:30N 40°40' W 074°01'0 0.0
2017-Sep-11 18:00N 40°40' W 074°01'0 0.0
2017-Sep-11 17:30N 40°40' W 074°01'0 0.0
2017-Sep-11 17:00N 40°40' W 074°01'0 0.0
2017-Sep-11 16:30N 40°40' W 074°01'0 0.0
2017-Sep-11 16:00N 40°40' W 074°01'0 0.0
2017-Sep-11 15:30N 40°40' W 074°01'0 0.0
2017-Sep-11 15:00N 40°40' W 074°01'0 0.0
2017-Sep-11 14:27N 40°40' W 074°01'0 0.0
2017-Sep-11 14:00N 40°40' W 074°01'0 0.0
2017-Sep-11 13:30N 40°40' W 074°01'0 0.0
2017-Sep-11 13:00N 40°40' W 074°01'0 0.0
2017-Sep-11 12:30N 40°40' W 074°01'0 0.0
2017-Sep-11 12:00N 40°40' W 074°01'0 0.0
2017-Sep-11 11:30N 40°40' W 074°01'0 0.0
2017-Sep-11 11:00N 40°40' W 074°01'0 0.0
2017-Sep-11 10:30N 40°40' W 074°01'0 0.0
2017-Sep-11 10:00N 40°40' W 074°01'0 0.0
2017-Sep-11 09:30N 40°40' W 074°01'0 0.0
2017-Sep-11 09:00N 40°40' W 074°01'0 0.0
2017-Sep-11 08:30N 40°40' W 074°01'2 3.5
2017-Sep-11 08:00N 40°40' W 074°03'4 7.3
2017-Sep-11 07:30N 40°38' W 074°08'0 0.0
2017-Sep-11 07:00N 40°38' W 074°08'0 0.0
2017-Sep-11 06:30N 40°38' W 074°08'3 6.4
2017-Sep-11 06:00N 40°38' W 074°12'3 3.7
2017-Sep-11 05:10N 40°35' W 074°12'0 2.5
2017-Sep-11 05:00N 40°35' W 074°13'3 3.7
2017-Sep-11 04:17N 40°33' W 074°15'5 3.0
2017-Sep-11 02:33N 40°30' W 074°09'0 5.2
2017-Sep-11 02:30N 40°30' W 074°09'3 5.0
2017-Sep-11 01:55N 40°29' W 074°05'3 6.7
2017-Sep-11 01:30N 40°29' W 074°02'4 7.5
2017-Sep-11 01:00N 40°28' W 073°57'32 8.5
2017-Sep-10 21:13N 39°55' W 073°58'2 9.2
2017-Sep-10 21:00N 39°53' W 073°58'5 9.1
2017-Sep-10 20:28N 39°49' W 073°59'4 8.8
2017-Sep-10 19:58N 39°44' W 073°60'4 8.7
2017-Sep-10 19:28N 39°40' W 074°02'4 8.6
2017-Sep-10 19:00N 39°37' W 074°05'4 8.6
2017-Sep-10 18:29N 39°33' W 074°07'59 7.0
2017-Sep-10 10:04N 38°56' W 075°06'1 9.8
2017-Sep-10 10:00N 38°56' W 075°06'510.2
2017-Sep-10 09:30N 39°01' W 075°09'510.5
2017-Sep-10 09:00N 39°05' W 075°12'510.8
2017-Sep-10 08:30N 39°10' W 075°16'510.5
2017-Sep-10 08:00N 39°14' W 075°19'5 9.9
2017-Sep-10 07:30N 39°18' W 075°23'5 9.2
2017-Sep-10 07:00N 39°22' W 075°27'4 8.4
2017-Sep-10 06:30N 39°25' W 075°31'4 7.8
2017-Sep-10 06:00N 39°28' W 075°34'4 7.3
2017-Sep-10 05:30N 39°31' W 075°33'3 6.9
2017-Sep-10 05:00N 39°35' W 075°34'3 6.3
2017-Sep-10 04:30N 39°38' W 075°34'4 7.8
2017-Sep-10 04:00N 39°41' W 075°31'4 8.7
2017-Sep-10 03:30N 39°45' W 075°29'5 9.5
2017-Sep-10 03:01N 39°48' W 075°25'510.3
2017-Sep-10 02:31N 39°51' W 075°19'3 5.9
2017-Sep-10 02:01N 39°51' W 075°15'0 0.0
2017-Sep-10 01:31N 39°51' W 075°15'0 0.0
2017-Sep-10 00:56N 39°51' W 075°15'0 0.0
2017-Sep-10 00:29N 39°51' W 075°15'0 0.0
2017-Sep-09 23:59N 39°51' W 075°15'0 0.0
2017-Sep-09 23:29N 39°51' W 075°15'0 0.0
2017-Sep-09 22:59N 39°51' W 075°15'0 0.0
2017-Sep-09 22:29N 39°51' W 075°15'0 0.0
2017-Sep-09 21:59N 39°51' W 075°15'0 0.0
2017-Sep-09 21:29N 39°51' W 075°15'0 0.0
2017-Sep-09 20:59N 39°51' W 075°15'0 0.0
2017-Sep-09 20:29N 39°51' W 075°15'0 0.0
2017-Sep-09 19:59N 39°51' W 075°15'0 0.0
2017-Sep-09 19:29N 39°51' W 075°15'0 0.0
2017-Sep-09 18:59N 39°51' W 075°15'0 0.0
2017-Sep-09 18:29N 39°51' W 075°15'0 0.0
2017-Sep-09 17:59N 39°51' W 075°15'0 0.0
2017-Sep-09 17:29N 39°51' W 075°15'0 0.0
2017-Sep-09 16:59N 39°51' W 075°15'0 0.0
2017-Sep-09 16:29N 39°51' W 075°15'0 0.0
2017-Sep-09 15:59N 39°51' W 075°15'0 0.0
2017-Sep-09 15:29N 39°51' W 075°15'0 0.0
2017-Sep-09 14:59N 39°51' W 075°15'0 0.0
2017-Sep-09 14:29N 39°51' W 075°15'0 0.0
2017-Sep-09 13:59N 39°51' W 075°15'0 0.0
2017-Sep-09 13:29N 39°51' W 075°15'0 0.0
2017-Sep-09 12:59N 39°51' W 075°15'0 0.0
2017-Sep-09 12:29N 39°51' W 075°15'0 0.0
2017-Sep-09 11:59N 39°51' W 075°15'0 0.0
2017-Sep-09 11:29N 39°51' W 075°15'0 0.0
2017-Sep-09 10:59N 39°51' W 075°15'0 0.0
2017-Sep-09 10:29N 39°51' W 075°15'0 0.0
2017-Sep-09 09:59N 39°51' W 075°15'0 0.0
2017-Sep-09 09:29N 39°51' W 075°15'0 0.0
2017-Sep-09 08:59N 39°51' W 075°15'0 0.0
2017-Sep-09 08:29N 39°51' W 075°15'0 0.0
2017-Sep-09 07:59N 39°51' W 075°15'0 0.0
2017-Sep-09 07:29N 39°51' W 075°15'0 0.0
2017-Sep-09 06:59N 39°51' W 075°15'0 0.0
2017-Sep-09 06:29N 39°51' W 075°15'0 0.0
2017-Sep-09 05:59N 39°51' W 075°15'0 0.0
2017-Sep-09 05:29N 39°51' W 075°15'0 0.0
2017-Sep-09 04:59N 39°51' W 075°15'0 0.0
2017-Sep-09 04:26N 39°51' W 075°15'0 0.0
2017-Sep-09 04:00N 39°51' W 075°15'0 0.6
2017-Sep-09 03:30N 39°51' W 075°15'4 8.6
2017-Sep-09 03:00N 39°53' W 075°10'0 0.2
2017-Sep-09 02:30N 39°53' W 075°09'0 0.0
2017-Sep-09 02:00N 39°53' W 075°09'0 0.0
2017-Sep-09 01:30N 39°53' W 075°09'0 0.0
2017-Sep-09 01:00N 39°53' W 075°09'0 0.0
2017-Sep-09 00:30N 39°53' W 075°09'0 0.0
2017-Sep-09 00:00N 39°53' W 075°09'0 0.0
2017-Sep-08 23:30N 39°53' W 075°09'0 0.0
2017-Sep-08 23:00N 39°53' W 075°09'0 0.0
2017-Sep-08 22:30N 39°53' W 075°09'0 0.0
2017-Sep-08 22:00N 39°53' W 075°09'0 0.0
2017-Sep-08 21:30N 39°53' W 075°09'0 0.0
2017-Sep-08 21:00N 39°53' W 075°09'0 0.0
2017-Sep-08 20:30N 39°53' W 075°09'0 0.0
2017-Sep-08 20:00N 39°53' W 075°09'0 0.0
2017-Sep-08 19:30N 39°53' W 075°09'0 0.0
2017-Sep-08 19:00N 39°53' W 075°09'0 0.0
2017-Sep-08 18:30N 39°53' W 075°09'0 0.0
2017-Sep-08 18:00N 39°53' W 075°09'0 0.0
2017-Sep-08 17:30N 39°53' W 075°09'0 0.0
2017-Sep-08 17:00N 39°53' W 075°09'0 0.0
2017-Sep-08 16:30N 39°53' W 075°09'0 0.0
2017-Sep-08 16:00N 39°53' W 075°09'0 0.0
2017-Sep-08 15:30N 39°53' W 075°09'0 0.0
2017-Sep-08 15:00N 39°53' W 075°09'0 0.0
2017-Sep-08 14:30N 39°53' W 075°09'0 0.0
2017-Sep-08 14:00N 39°53' W 075°09'  
Track history (hours):
 
Tides and Currents Weather Stations Pressure Air Temp Water Temp Dewpoint Dewpoint Depression Visibility Wind Speed Wind Dir Waves Ship Positions

Dace Reinauer

Owner: REINAUER TRANSPORTATION CO.LLC., STATEN ISLAND, NY. More information available from US FCC via Universal Licensing System and Coast Guard Vessel Documentation Center.

Last reported at 2017-Sep-18 13:35 UTC. Time now 2017-Sep-20 18:23 UTC.
Position N 40°53' W 073°44'.

Length 41 m; draft 4.5 m.

Type: . MMSI: 366238710.

Date/timePositionNaut miles runAvg speedWind from/ knotsBaromVisibWave heightAir tempDewpointWater temp
2017-Sep-18 13:35N 40°53' W 073°44'1 8.9
2017-Sep-18 13:30N 40°52' W 073°44'4 8.6
2017-Sep-18 12:59N 40°48' W 073°47'5 8.9
2017-Sep-18 12:26N 40°48' W 073°53'4 8.8
2017-Sep-18 12:00N 40°46' W 073°57'5 9.7
2017-Sep-18 11:30N 40°41' W 074°00'4 8.0
2017-Sep-18 11:00N 40°39' W 074°05'3 6.5
2017-Sep-18 10:30N 40°38' W 074°09'3 4.2
2017-Sep-18 09:50N 40°38' W 074°12'0 0.0
2017-Sep-18 09:20N 40°38' W 074°12'0 0.3
2017-Sep-18 08:50N 40°38' W 074°12'0 0.0
2017-Sep-18 08:26N 40°38' W 074°12'0 0.0
2017-Sep-18 07:59N 40°38' W 074°12'0 0.0
2017-Sep-18 07:26N 40°38' W 074°12'0 0.0
2017-Sep-18 06:59N 40°38' W 074°12'0 0.0
2017-Sep-18 06:29N 40°38' W 074°12'0 0.0
2017-Sep-18 05:59N 40°38' W 074°12'0 0.0
2017-Sep-18 05:26N 40°38' W 074°12'0 0.0
2017-Sep-18 04:56N 40°38' W 074°12'0 0.0
2017-Sep-18 04:29N 40°38' W 074°12'0 0.0
2017-Sep-18 03:59N 40°38' W 074°12'0 0.0
2017-Sep-18 03:26N 40°38' W 074°12'0 0.0
2017-Sep-18 02:59N 40°38' W 074°12'0 0.0
2017-Sep-18 02:29N 40°38' W 074°12'0 0.0
2017-Sep-18 01:56N 40°38' W 074°12'0 0.0
2017-Sep-18 01:29N 40°38' W 074°12'0 0.0
2017-Sep-18 00:59N 40°38' W 074°12'0 0.0
2017-Sep-18 00:29N 40°38' W 074°12'0 0.0
2017-Sep-17 23:56N 40°38' W 074°12'0 0.0
2017-Sep-17 23:17N 40°38' W 074°12'0 0.0
2017-Sep-17 22:56N 40°38' W 074°12'0 0.0
2017-Sep-17 22:26N 40°38' W 074°12'0 0.0
2017-Sep-17 21:59N 40°38' W 074°12'0 0.0
2017-Sep-17 21:26N 40°38' W 074°12'0 0.0
2017-Sep-17 20:56N 40°38' W 074°12'0 0.0
2017-Sep-17 20:23N 40°38' W 074°12'0 0.0
2017-Sep-17 19:56N 40°38' W 074°12'0 0.0
2017-Sep-17 19:29N 40°38' W 074°12'0 0.0
2017-Sep-17 18:50N 40°38' W 074°12'0 0.0
2017-Sep-17 18:29N 40°38' W 074°12'0 0.0
2017-Sep-17 17:54N 40°38' W 074°12'2 5.1
2017-Sep-17 17:30N 40°38' W 074°10'1 3.0
2017-Sep-17 17:00N 40°38' W 074°08'0 0.0
2017-Sep-17 16:30N 40°38' W 074°08'0 0.0
2017-Sep-17 15:57N 40°38' W 074°08'0 0.0
2017-Sep-17 15:30N 40°38' W 074°08'0 0.0
2017-Sep-17 15:00N 40°38' W 074°08'0 0.0
2017-Sep-17 14:30N 40°38' W 074°08'0 0.0
2017-Sep-17 14:00N 40°38' W 074°08'0 0.0
2017-Sep-17 13:30N 40°38' W 074°08'0 0.0
2017-Sep-17 13:00N 40°38' W 074°08'0 0.0
2017-Sep-17 12:30N 40°38' W 074°08'0 0.0
2017-Sep-17 12:00N 40°38' W 074°08'0 0.0
2017-Sep-17 11:30N 40°38' W 074°08'0 0.0
2017-Sep-17 11:00N 40°38' W 074°08'0 0.0
2017-Sep-17 10:30N 40°38' W 074°08'0 0.0
2017-Sep-17 09:57N 40°38' W 074°08'0 0.0
2017-Sep-17 09:27N 40°38' W 074°08'0 0.0
2017-Sep-17 09:00N 40°38' W 074°08'0 0.0
2017-Sep-17 08:30N 40°38' W 074°08'0 0.0
2017-Sep-17 08:00N 40°38' W 074°08'1 1.1
2017-Sep-17 07:30N 40°39' W 074°08'3 5.7
2017-Sep-17 06:58N 40°38' W 074°12'0 0.1
2017-Sep-17 06:19N 40°38' W 074°12'1 2.0
2017-Sep-17 06:00N 40°38' W 074°12'3 5.3
2017-Sep-17 05:30N 40°39' W 074°08'5 9.4
2017-Sep-17 05:01N 40°40' W 074°03'1 2.3
2017-Sep-17 04:30N 40°40' W 074°01'0 0.0
2017-Sep-17 04:00N 40°40' W 074°01'0 0.0
2017-Sep-17 03:30N 40°40' W 074°01'0 0.0
2017-Sep-17 03:00N 40°40' W 074°01'0 0.0
2017-Sep-17 02:30N 40°40' W 074°01'1 1.3
2017-Sep-17 02:00N 40°40' W 074°02'1 2.4
2017-Sep-17 01:29N 40°39' W 074°03'0 0.0
2017-Sep-17 00:59N 40°39' W 074°03'0 0.1
2017-Sep-17 00:30N 40°39' W 074°03'0 0.2
2017-Sep-17 00:00N 40°39' W 074°03'0 0.1
2017-Sep-16 23:29N 40°39' W 074°03'0 0.0
2017-Sep-16 22:59N 40°39' W 074°03'0 0.0
2017-Sep-16 22:29N 40°39' W 074°03'0 0.0
2017-Sep-16 21:59N 40°39' W 074°03'1 2.6
2017-Sep-16 21:28N 40°40' W 074°01'0 0.0
2017-Sep-16 20:58N 40°40' W 074°01'0 0.0
2017-Sep-16 20:28N 40°40' W 074°01'0 0.0
2017-Sep-16 19:58N 40°40' W 074°01'0 0.0
2017-Sep-16 19:28N 40°40' W 074°01'0 0.0
2017-Sep-16 18:58N 40°40' W 074°01'0 0.0
2017-Sep-16 18:28N 40°40' W 074°01'0 0.0
2017-Sep-16 17:58N 40°40' W 074°01'0 0.0
2017-Sep-16 17:28N 40°40' W 074°01'0 0.0
2017-Sep-16 16:58N 40°40' W 074°01'0 0.0
2017-Sep-16 16:30N 40°40' W 074°01'0 0.4
2017-Sep-16 15:59N 40°40' W 074°01'0 0.0
2017-Sep-16 15:29N 40°40' W 074°01'0 0.4
2017-Sep-16 14:59N 40°40' W 074°01'0 0.0
2017-Sep-16 14:29N 40°40' W 074°01'0 0.0
2017-Sep-16 13:59N 40°40' W 074°01'0 0.0
2017-Sep-16 13:29N 40°40' W 074°01'0 0.0
2017-Sep-16 12:59N 40°40' W 074°01'0 0.0
2017-Sep-16 12:29N 40°40' W 074°01'0 0.0
2017-Sep-16 11:59N 40°40' W 074°01'0 0.0
2017-Sep-16 11:29N 40°40' W 074°01'0 0.0
2017-Sep-16 10:59N 40°40' W 074°01'0 0.0
2017-Sep-16 10:29N 40°40' W 074°01'0 0.0
2017-Sep-16 09:59N 40°40' W 074°01'0 0.1
2017-Sep-16 09:29N 40°40' W 074°01'0 0.1
2017-Sep-16 08:59N 40°40' W 074°01'0 0.0
2017-Sep-16 08:29N 40°40' W 074°01'0 0.0
2017-Sep-16 08:00N 40°40' W 074°01'0 0.3
2017-Sep-16 07:29N 40°40' W 074°01'0 0.3
2017-Sep-16 06:58N 40°40' W 074°01'0 0.0
2017-Sep-16 06:28N 40°40' W 074°01'0 0.0
2017-Sep-16 05:58N 40°40' W 074°01'0 0.0
2017-Sep-16 05:28N 40°40' W 074°01'0 0.0
2017-Sep-16 04:58N 40°40' W 074°01'0 0.0
2017-Sep-16 04:28N 40°40' W 074°01'0 0.0
2017-Sep-16 03:58N 40°40' W 074°01'0 0.0
2017-Sep-16 03:28N 40°40' W 074°01'0 0.0
2017-Sep-16 02:58N 40°40' W 074°01'0 0.0
2017-Sep-16 02:28N 40°40' W 074°01'0 0.0
2017-Sep-16 01:58N 40°40' W 074°01'0 0.0
2017-Sep-16 01:28N 40°40' W 074°01'0 0.0
2017-Sep-16 00:58N 40°40' W 074°01'0 0.0
2017-Sep-16 00:28N 40°40' W 074°01'0 0.0
2017-Sep-15 23:58N 40°40' W 074°01'0 0.0
2017-Sep-15 23:28N 40°40' W 074°01'0 0.0
2017-Sep-15 22:58N 40°40' W 074°01'0 0.0
2017-Sep-15 22:28N 40°40' W 074°01'0 0.0
2017-Sep-15 21:58N 40°40' W 074°01'0 0.0
2017-Sep-15 21:28N 40°40' W 074°01'0 0.0
2017-Sep-15 20:58N 40°40' W 074°01'0 0.0
2017-Sep-15 20:28N 40°40' W 074°01'0 0.0
2017-Sep-15 19:58N 40°40' W 074°01'0 0.0
2017-Sep-15 19:28N 40°40' W 074°01'0 0.0
2017-Sep-15 18:58N 40°40' W 074°01'0 0.0
2017-Sep-15 18:28N 40°40' W 074°01'0 0.0
2017-Sep-15 17:58N 40°40' W 074°01'0 0.0
2017-Sep-15 17:28N 40°40' W 074°01'0 0.0
2017-Sep-15 16:58N 40°40' W 074°01'0 0.0
2017-Sep-15 16:28N 40°40' W 074°01'0 0.0
2017-Sep-15 15:58N 40°40' W 074°01'0 0.0
2017-Sep-15 15:28N 40°40' W 074°01'0 0.0
2017-Sep-15 14:58N 40°40' W 074°01'0 0.0
2017-Sep-15 14:28N 40°40' W 074°01'0 0.0
2017-Sep-15 13:58N 40°40' W 074°01'0 0.0
2017-Sep-15 13:28N 40°40' W 074°01'0 0.0
2017-Sep-15 12:58N 40°40' W 074°01'0 0.0
2017-Sep-15 12:28N 40°40' W 074°01'0 0.0
2017-Sep-15 11:58N 40°40' W 074°01'0 0.0
2017-Sep-15 11:28N 40°40' W 074°01'0 0.0
2017-Sep-15 10:58N 40°40' W 074°01'0 0.0
2017-Sep-15 10:29N 40°40' W 074°01'1 2.8
2017-Sep-15 10:00N 40°39' W 074°02'1 2.5
2017-Sep-15 09:29N 40°40' W 074°01'0 0.0
2017-Sep-15 08:59N 40°40' W 074°01'0 0.0
2017-Sep-15 08:29N 40°40' W 074°01'0 0.0
2017-Sep-15 07:59N 40°40' W 074°01'0 0.0
2017-Sep-15 07:29N 40°40' W 074°01'0 0.0
2017-Sep-15 06:59N 40°40' W 074°01'0 0.0
2017-Sep-15 06:29N 40°40' W 074°01'0 0.0
2017-Sep-15 05:59N 40°40' W 074°01'0 0.0
2017-Sep-15 05:29N 40°40' W 074°01'0 0.0
2017-Sep-15 04:59N 40°40' W 074°01'0 0.0
2017-Sep-15 04:29N 40°40' W 074°01'0 0.0
2017-Sep-15 03:59N 40°40' W 074°01'0 0.0
2017-Sep-15 03:29N 40°40' W 074°01'0 0.0
2017-Sep-15 02:59N 40°40' W 074°01'0 0.0
2017-Sep-15 02:29N 40°40' W 074°01'0 0.0
2017-Sep-15 01:59N 40°40' W 074°01'0 0.0
2017-Sep-15 01:29N 40°40' W 074°01'0 0.0
2017-Sep-15 00:59N 40°40' W 074°01'0 0.0
2017-Sep-15 00:29N 40°40' W 074°01'0 0.0
2017-Sep-14 23:59N 40°40' W 074°01'0 0.0
2017-Sep-14 23:29N 40°40' W 074°01'0 0.0
2017-Sep-14 22:59N 40°40' W 074°01'0 0.0
2017-Sep-14 22:29N 40°40' W 074°01'0 0.0
2017-Sep-14 21:59N 40°40' W 074°01'0 0.0
2017-Sep-14 21:29N 40°40' W 074°01'0 0.0
2017-Sep-14 20:59N 40°40' W 074°01'0 0.0
2017-Sep-14 20:29N 40°40' W 074°01'0 0.0
2017-Sep-14 19:59N 40°40' W 074°01'0 0.0
2017-Sep-14 19:29N 40°40' W 074°01'0 0.0
2017-Sep-14 18:59N 40°40' W 074°01'0 0.0
2017-Sep-14 18:29N 40°40' W 074°01'0 0.0
2017-Sep-14 17:59N 40°40' W 074°01'0 0.0
2017-Sep-14 17:29N 40°40' W 074°01'0 0.0
2017-Sep-14 16:59N 40°40' W 074°01'0 0.0
2017-Sep-14 16:29N 40°40' W 074°01'0 0.0
2017-Sep-14 15:59N 40°40' W 074°01'0 0.0
2017-Sep-14 15:29N 40°40' W 074°01'0 0.0
2017-Sep-14 14:59N 40°40' W 074°01'0 0.0
2017-Sep-14 14:29N 40°40' W 074°01'0 0.0
2017-Sep-14 13:59N 40°40' W 074°01'0 0.0
2017-Sep-14 13:29N 40°40' W 074°01'0 0.0
2017-Sep-14 12:59N 40°40' W 074°01'0 0.0
2017-Sep-14 12:29N 40°40' W 074°01'0 0.0
2017-Sep-14 11:59N 40°40' W 074°01'0 0.0
2017-Sep-14 11:29N 40°40' W 074°01'0 0.0
2017-Sep-14 10:59N 40°40' W 074°01'0 0.0
2017-Sep-14 10:29N 40°40' W 074°01'0 0.0
2017-Sep-14 09:59N 40°40' W 074°01'0 0.0
2017-Sep-14 09:29N 40°40' W 074°01'0 0.0
2017-Sep-14 08:59N 40°40' W 074°01'0 0.0
2017-Sep-14 08:29N 40°40' W 074°01'0 0.0
2017-Sep-14 07:59N 40°40' W 074°01'0 0.0
2017-Sep-14 07:29N 40°40' W 074°01'0 0.0
2017-Sep-14 06:59N 40°40' W 074°01'0 0.0
2017-Sep-14 06:29N 40°40' W 074°01'0 0.0
2017-Sep-14 05:59N 40°40' W 074°01'0 0.0
2017-Sep-14 05:29N 40°40' W 074°01'0 0.0
2017-Sep-14 04:59N 40°40' W 074°01'0 0.0
2017-Sep-14 04:29N 40°40' W 074°01'0 0.0
2017-Sep-14 03:59N 40°40' W 074°01'0 0.0
2017-Sep-14 03:29N 40°40' W 074°01'0 0.0
2017-Sep-14 02:59N 40°40' W 074°01'0 0.0
2017-Sep-14 02:29N 40°40' W 074°01'0 0.0
2017-Sep-14 01:59N 40°40' W 074°01'0 0.0
2017-Sep-14 01:29N 40°40' W 074°01'0 0.0
2017-Sep-14 00:59N 40°40' W 074°01'0 0.0
2017-Sep-14 00:29N 40°40' W 074°01'0 0.0
2017-Sep-13 23:59N 40°40' W 074°01'0 0.0
2017-Sep-13 23:29N 40°40' W 074°01'0 0.0
2017-Sep-13 22:59N 40°40' W 074°01'0 0.0
2017-Sep-13 22:29N 40°40' W 074°01'0 0.0
2017-Sep-13 21:59N 40°40' W 074°01'0 0.0
2017-Sep-13 21:29N 40°40' W 074°01'1 1.7
2017-Sep-13 21:00N 40°40' W 074°02'0 0.1
2017-Sep-13 20:29N 40°40' W 074°02'0 0.1
2017-Sep-13 19:59N 40°40' W 074°02'0 0.0
2017-Sep-13 19:29N 40°40' W 074°02'0 0.0
2017-Sep-13 18:59N 40°40' W 074°02'0 0.1
2017-Sep-13 18:29N 40°40' W 074°02'0 0.1
2017-Sep-13 17:59N 40°40' W 074°02'0 0.0
2017-Sep-13 17:29N 40°40' W 074°02'0 0.0
2017-Sep-13 17:00N 40°40' W 074°02'1 1.4
2017-Sep-13 16:29N 40°40' W 074°01'0 0.0
2017-Sep-13 15:59N 40°40' W 074°01'0 0.0
2017-Sep-13 15:29N 40°40' W 074°01'0 0.0
2017-Sep-13 14:59N 40°40' W 074°01'0 0.0
2017-Sep-13 14:29N 40°40' W 074°01'0 0.0
2017-Sep-13 13:59N 40°40' W 074°01'0 0.0
2017-Sep-13 13:29N 40°40' W 074°01'0 0.0
2017-Sep-13 12:59N 40°40' W 074°01'0 0.0
2017-Sep-13 12:29N 40°40' W 074°01'0 0.0
2017-Sep-13 11:59N 40°40' W 074°01'0 0.0
2017-Sep-13 11:29N 40°40' W 074°01'0 0.0
2017-Sep-13 10:59N 40°40' W 074°01'0 0.0
2017-Sep-13 10:29N 40°40' W 074°01'0 0.0
2017-Sep-13 09:59N 40°40' W 074°01'0 0.0
2017-Sep-13 09:29N 40°40' W 074°01'0 0.0
2017-Sep-13 08:59N 40°40' W 074°01'0 0.0
2017-Sep-13 08:29N 40°40' W 074°01'0 0.0
2017-Sep-13 07:59N 40°40' W 074°01'0 0.0
2017-Sep-13 07:29N 40°40' W 074°01'0 0.0
2017-Sep-13 06:59N 40°40' W 074°01'0 0.0
2017-Sep-13 06:29N 40°40' W 074°01'0 0.0
2017-Sep-13 05:59N 40°40' W 074°01'0 0.0
2017-Sep-13 05:29N 40°40' W 074°01'0 0.0
2017-Sep-13 04:59N 40°40' W 074°01'0 0.0
2017-Sep-13 04:29N 40°40' W 074°01'0 0.0
2017-Sep-13 03:59N 40°40' W 074°01'0 0.0
2017-Sep-13 03:29N 40°40' W 074°01'1 1.3
2017-Sep-13 02:59N 40°40' W 074°02'0 0.2
2017-Sep-13 02:29N 40°40' W 074°02'0 0.0
2017-Sep-13 01:59N 40°40' W 074°02'0 0.1
2017-Sep-13 01:29N 40°40' W 074°02'0 0.0
2017-Sep-13 00:59N 40°40' W 074°02'0 0.0
2017-Sep-13 00:29N 40°40' W 074°02'0 0.0
2017-Sep-12 23:59N 40°40' W 074°02'0 0.0
2017-Sep-12 23:29N 40°40' W 074°02'0 0.0
2017-Sep-12 22:59N 40°40' W 074°02'0 0.0
2017-Sep-12 22:29N 40°40' W 074°02'0 0.0
2017-Sep-12 21:59N 40°40' W 074°02'1 1.6
2017-Sep-12 21:30N 40°40' W 074°01'0 0.1
2017-Sep-12 21:00N 40°40' W 074°01'0 0.3
2017-Sep-12 20:28N 40°40' W 074°01'0 0.0
2017-Sep-12 19:58N 40°40' W 074°01'0 0.0
2017-Sep-12 19:28N 40°40' W 074°01'0 0.0
2017-Sep-12 18:58N 40°40' W 074°01'0 0.0
2017-Sep-12 18:29N 40°40' W 074°01'0 0.0
2017-Sep-12 18:00N 40°40' W 074°01'0 0.0
2017-Sep-12 17:30N 40°40' W 074°01'1 1.5
2017-Sep-12 17:00N 40°40' W 074°02'0 0.0
2017-Sep-12 16:30N 40°40' W 074°02'0 0.0
2017-Sep-12 16:00N 40°40' W 074°02'0 0.1
2017-Sep-12 15:30N 40°40' W 074°02'0 0.3
2017-Sep-12 15:00N 40°40' W 074°02'0 0.1
2017-Sep-12 14:30N 40°40' W 074°02'0 0.0
2017-Sep-12 14:00N 40°40' W 074°02'0 0.1
2017-Sep-12 13:30N 40°40' W 074°02'0 0.1
2017-Sep-12 13:00N 40°40' W 074°02'0 0.1
2017-Sep-12 12:30N 40°40' W 074°02'0 0.1
2017-Sep-12 12:00N 40°40' W 074°02'1 1.3
2017-Sep-12 11:29N 40°40' W 074°01'0 0.0
2017-Sep-12 10:58N 40°40' W 074°01'0 0.0
2017-Sep-12 10:29N 40°40' W 074°01'0 0.0
2017-Sep-12 09:59N 40°40' W 074°01'0 0.0
2017-Sep-12 09:28N 40°40' W 074°01'0 0.0
2017-Sep-12 08:59N 40°40' W 074°01'0 0.0
2017-Sep-12 08:28N 40°40' W 074°01'0 0.0
2017-Sep-12 07:59N 40°40' W 074°01'0 0.0
2017-Sep-12 07:29N 40°40' W 074°01'0 0.0
2017-Sep-12 06:59N 40°40' W 074°01'0 0.0
2017-Sep-12 06:28N 40°40' W 074°01'0 0.4
2017-Sep-12 06:00N 40°40' W 074°01'0 0.1
2017-Sep-12 05:30N 40°40' W 074°01'3 6.4
2017-Sep-12 05:01N 40°39' W 074°05'4 7.7
2017-Sep-12 04:31N 40°39' W 074°10'3 7.0
2017-Sep-12 04:00N 40°36' W 074°12'0 0.6
2017-Sep-12 03:30N 40°35' W 074°12'4 8.1
2017-Sep-12 03:01N 40°39' W 074°09'511.0
2017-Sep-12 02:31N 40°40' W 074°02'1 2.2
2017-Sep-12 02:00N 40°40' W 074°01'0 0.0
2017-Sep-12 01:30N 40°40' W 074°01'0 0.0
2017-Sep-12 01:00N 40°40' W 074°01'0 0.0
2017-Sep-12 00:30N 40°40' W 074°01'0 0.0
2017-Sep-12 00:00N 40°40' W 074°01'0 0.0
2017-Sep-11 23:30N 40°40' W 074°01'0 0.0
2017-Sep-11 23:00N 40°40' W 074°01'0 0.0
2017-Sep-11 22:30N 40°40' W 074°01'0 0.0
2017-Sep-11 22:00N 40°40' W 074°01'0 0.0
2017-Sep-11 21:30N 40°40' W 074°01'0 0.0
2017-Sep-11 21:00N 40°40' W 074°01'0 0.0
2017-Sep-11 20:30N 40°40' W 074°01'0 0.0
2017-Sep-11 20:00N 40°40' W 074°01'0 0.0
2017-Sep-11 19:30N 40°40' W 074°01'0 0.0
2017-Sep-11 19:00N 40°40' W 074°01'0 0.0
2017-Sep-11 18:30N 40°40' W 074°01'0 0.0
2017-Sep-11 18:00N 40°40' W 074°01'0 0.0
2017-Sep-11 17:30N 40°40' W 074°01'0 0.0
2017-Sep-11 17:00N 40°40' W 074°01'0 0.0
2017-Sep-11 16:30N 40°40' W 074°01'0 0.0
2017-Sep-11 16:00N 40°40' W 074°01'0 0.0
2017-Sep-11 15:30N 40°40' W 074°01'0 0.0
2017-Sep-11 15:00N 40°40' W 074°01'0 0.0
2017-Sep-11 14:27N 40°40' W 074°01'0 0.0
2017-Sep-11 14:00N 40°40' W 074°01'0 0.0
2017-Sep-11 13:30N 40°40' W 074°01'0 0.0
2017-Sep-11 13:00N 40°40' W 074°01'0 0.0
2017-Sep-11 12:30N 40°40' W 074°01'0 0.0
2017-Sep-11 12:00N 40°40' W 074°01'0 0.0
2017-Sep-11 11:30N 40°40' W 074°01'0 0.0
2017-Sep-11 11:00N 40°40' W 074°01'0 0.0
2017-Sep-11 10:30N 40°40' W 074°01'0 0.0
2017-Sep-11 10:00N 40°40' W 074°01'0 0.0
2017-Sep-11 09:30N 40°40' W 074°01'0 0.0
2017-Sep-11 09:00N 40°40' W 074°01'0 0.0
2017-Sep-11 08:30N 40°40' W 074°01'2 3.5
2017-Sep-11 08:00N 40°40' W 074°03'4 7.3
2017-Sep-11 07:30N 40°38' W 074°08'0 0.0
2017-Sep-11 07:00N 40°38' W 074°08'0 0.0
2017-Sep-11 06:30N 40°38' W 074°08'3 6.4
2017-Sep-11 06:00N 40°38' W 074°12'3 3.7
2017-Sep-11 05:10N 40°35' W 074°12'0 2.5
2017-Sep-11 05:00N 40°35' W 074°13'3 3.7
2017-Sep-11 04:17N 40°33' W 074°15'5 3.0
2017-Sep-11 02:33N 40°30' W 074°09'0 5.2
2017-Sep-11 02:30N 40°30' W 074°09'3 5.0
2017-Sep-11 01:55N 40°29' W 074°05'3 6.7
2017-Sep-11 01:30N 40°29' W 074°02'4 7.5
2017-Sep-11 01:00N 40°28' W 073°57'32 8.5
2017-Sep-10 21:13N 39°55' W 073°58'2 9.2
2017-Sep-10 21:00N 39°53' W 073°58'5 9.1
2017-Sep-10 20:28N 39°49' W 073°59'4 8.8
2017-Sep-10 19:58N 39°44' W 073°60'4 8.7
2017-Sep-10 19:28N 39°40' W 074°02'4 8.6
2017-Sep-10 19:00N 39°37' W 074°05'4 8.6
2017-Sep-10 18:29N 39°33' W 074°07'59 7.0
2017-Sep-10 10:04N 38°56' W 075°06'1 9.8
2017-Sep-10 10:00N 38°56' W 075°06'510.2
2017-Sep-10 09:30N 39°01' W 075°09'510.5
2017-Sep-10 09:00N 39°05' W 075°12'510.8
2017-Sep-10 08:30N 39°10' W 075°16'510.5
2017-Sep-10 08:00N 39°14' W 075°19'5 9.9
2017-Sep-10 07:30N 39°18' W 075°23'5 9.2
2017-Sep-10 07:00N 39°22' W 075°27'4 8.4
2017-Sep-10 06:30N 39°25' W 075°31'4 7.8
2017-Sep-10 06:00N 39°28' W 075°34'4 7.3
2017-Sep-10 05:30N 39°31' W 075°33'3 6.9
2017-Sep-10 05:00N 39°35' W 075°34'3 6.3
2017-Sep-10 04:30N 39°38' W 075°34'4 7.8
2017-Sep-10 04:00N 39°41' W 075°31'4 8.7
2017-Sep-10 03:30N 39°45' W 075°29'5 9.5
2017-Sep-10 03:01N 39°48' W 075°25'510.3
2017-Sep-10 02:31N 39°51' W 075°19'3 5.9
2017-Sep-10 02:01N 39°51' W 075°15'0 0.0
2017-Sep-10 01:31N 39°51' W 075°15'0 0.0
2017-Sep-10 00:56N 39°51' W 075°15'0 0.0
2017-Sep-10 00:29N 39°51' W 075°15'0 0.0
2017-Sep-09 23:59N 39°51' W 075°15'0 0.0
2017-Sep-09 23:29N 39°51' W 075°15'0 0.0
2017-Sep-09 22:59N 39°51' W 075°15'0 0.0
2017-Sep-09 22:29N 39°51' W 075°15'0 0.0
2017-Sep-09 21:59N 39°51' W 075°15'0 0.0
2017-Sep-09 21:29N 39°51' W 075°15'0 0.0
2017-Sep-09 20:59N 39°51' W 075°15'0 0.0
2017-Sep-09 20:29N 39°51' W 075°15'0 0.0
2017-Sep-09 19:59N 39°51' W 075°15'0 0.0
2017-Sep-09 19:29N 39°51' W 075°15'0 0.0
2017-Sep-09 18:59N 39°51' W 075°15'0 0.0
2017-Sep-09 18:29N 39°51' W 075°15'0 0.0
2017-Sep-09 17:59N 39°51' W 075°15'0 0.0
2017-Sep-09 17:29N 39°51' W 075°15'0 0.0
2017-Sep-09 16:59N 39°51' W 075°15'0 0.0
2017-Sep-09 16:29N 39°51' W 075°15'0 0.0
2017-Sep-09 15:59N 39°51' W 075°15'0 0.0
2017-Sep-09 15:29N 39°51' W 075°15'0 0.0
2017-Sep-09 14:59N 39°51' W 075°15'0 0.0
2017-Sep-09 14:29N 39°51' W 075°15'0 0.0
2017-Sep-09 13:59N 39°51' W 075°15'0 0.0
2017-Sep-09 13:29N 39°51' W 075°15'0 0.0
2017-Sep-09 12:59N 39°51' W 075°15'0 0.0
2017-Sep-09 12:29N 39°51' W 075°15'0 0.0
2017-Sep-09 11:59N 39°51' W 075°15'0 0.0
2017-Sep-09 11:29N 39°51' W 075°15'0 0.0
2017-Sep-09 10:59N 39°51' W 075°15'0 0.0
2017-Sep-09 10:29N 39°51' W 075°15'0 0.0
2017-Sep-09 09:59N 39°51' W 075°15'0 0.0
2017-Sep-09 09:29N 39°51' W 075°15'0 0.0
2017-Sep-09 08:59N 39°51' W 075°15'0 0.0
2017-Sep-09 08:29N 39°51' W 075°15'0 0.0
2017-Sep-09 07:59N 39°51' W 075°15'0 0.0
2017-Sep-09 07:29N 39°51' W 075°15'0 0.0
2017-Sep-09 06:59N 39°51' W 075°15'0 0.0
2017-Sep-09 06:29N 39°51' W 075°15'0 0.0
2017-Sep-09 05:59N 39°51' W 075°15'0 0.0
2017-Sep-09 05:29N 39°51' W 075°15'0 0.0
2017-Sep-09 04:59N 39°51' W 075°15'0 0.0
2017-Sep-09 04:26N 39°51' W 075°15'0 0.0
2017-Sep-09 04:00N 39°51' W 075°15'0 0.6
2017-Sep-09 03:30N 39°51' W 075°15'4 8.6
2017-Sep-09 03:00N 39°53' W 075°10'0 0.2
2017-Sep-09 02:30N 39°53' W 075°09'0 0.0
2017-Sep-09 02:00N 39°53' W 075°09'0 0.0
2017-Sep-09 01:30N 39°53' W 075°09'0 0.0
2017-Sep-09 01:00N 39°53' W 075°09'0 0.0
2017-Sep-09 00:30N 39°53' W 075°09'0 0.0
2017-Sep-09 00:00N 39°53' W 075°09'0 0.0
2017-Sep-08 23:30N 39°53' W 075°09'0 0.0
2017-Sep-08 23:00N 39°53' W 075°09'0 0.0
2017-Sep-08 22:30N 39°53' W 075°09'0 0.0
2017-Sep-08 22:00N 39°53' W 075°09'0 0.0
2017-Sep-08 21:30N 39°53' W 075°09'0 0.0
2017-Sep-08 21:00N 39°53' W 075°09'0 0.0
2017-Sep-08 20:30N 39°53' W 075°09'0 0.0
2017-Sep-08 20:00N 39°53' W 075°09'0 0.0
2017-Sep-08 19:30N 39°53' W 075°09'0 0.0
2017-Sep-08 19:00N 39°53' W 075°09'0 0.0
2017-Sep-08 18:30N 39°53' W 075°09'0 0.0
2017-Sep-08 18:00N 39°53' W 075°09'0 0.0
2017-Sep-08 17:30N 39°53' W 075°09'0 0.0
2017-Sep-08 17:00N 39°53' W 075°09'0 0.0
2017-Sep-08 16:30N 39°53' W 075°09'0 0.0
2017-Sep-08 16:00N 39°53' W 075°09'0 0.0
2017-Sep-08 15:30N 39°53' W 075°09'0 0.0
2017-Sep-08 15:00N 39°53' W 075°09'0 0.0
2017-Sep-08 14:30N 39°53' W 075°09'0 0.0
2017-Sep-08 14:00N 39°53' W 075°09'  

Dump ship's entire track history